Time;durP1;ratioP1;P1;durP2;ratioP2;P2;SDS_P1;SDS_P2;PMS_P1;PMS_P2;Temp;Humidity;BMP_temperature;BMP_pressure;BME280_temperature;BME280_humidity;BME280_pressure;Samples;Min_cycle;Max_cycle;Signal;HPM_P1;HPM_P2
2023/05/19 00:02:19;;;;;;;99.50;89.30;;;;;;;10.90;100.00;101099.78;5018018;28;20049;-76
2023/05/19 00:04:48;;;;;;;92.13;82.78;;;;;;;10.91;100.00;101096.91;5025821;28;20215;-75
2023/05/19 00:07:19;;;;;;;98.95;89.63;;;;;;;10.84;100.00;101098.72;5021300;28;20137;-76
2023/05/19 00:09:46;;;;;;;92.90;83.75;;;;;;;10.66;100.00;101099.25;5022349;28;20100;-76
2023/05/19 00:12:14;;;;;;;86.25;77.60;;;;;;;10.82;100.00;101105.25;5021312;28;20494;-76
2023/05/19 00:14:42;;;;;;;80.47;72.10;;;;;;;10.64;100.00;101108.44;5013589;28;20053;-76
2023/05/19 00:17:09;;;;;;;81.95;73.72;;;;;;;10.59;100.00;101108.19;5021935;28;20901;-76
2023/05/19 00:19:36;;;;;;;86.15;77.65;;;;;;;10.35;100.00;101118.28;5022566;28;20056;-76
2023/05/19 00:22:05;;;;;;;79.85;71.82;;;;;;;10.24;100.00;101116.94;5021737;28;20045;-76
2023/05/19 00:24:33;;;;;;;76.15;68.32;;;;;;;10.06;100.00;101116.63;5019886;28;20107;-76
2023/05/19 00:27:00;;;;;;;89.45;80.85;;;;;;;10.34;100.00;101113.97;5021405;28;20437;-75
2023/05/19 00:29:26;;;;;;;83.50;75.18;;;;;;;10.08;100.00;101117.25;5022730;28;20045;-75
2023/05/19 00:31:56;;;;;;;91.97;83.32;;;;;;;10.02;100.00;101115.38;5023490;28;20057;-75
2023/05/19 00:34:23;;;;;;;83.05;75.25;;;;;;;10.32;100.00;101131.97;5026193;28;20541;-76
2023/05/19 00:36:50;;;;;;;78.03;70.28;;;;;;;10.17;100.00;101125.91;5022064;28;20076;-75
2023/05/19 00:39:17;;;;;;;78.22;70.10;;;;;;;10.08;100.00;101119.91;5021481;28;20444;-76
2023/05/19 00:41:45;;;;;;;94.15;85.40;;;;;;;10.31;100.00;101131.09;5022231;28;20053;-76
2023/05/19 00:44:12;;;;;;;87.97;79.63;;;;;;;10.31;100.00;101140.91;5023183;28;20052;-76
2023/05/19 00:46:40;;;;;;;84.47;75.88;;;;;;;10.34;100.00;101142.38;5024164;28;20061;-76
2023/05/19 00:49:06;;;;;;;79.15;71.72;;;;;;;10.34;100.00;101143.19;5023253;28;20049;-76
2023/05/19 00:51:33;;;;;;;94.47;85.25;;;;;;;10.05;100.00;101145.00;5021340;28;20052;-76
2023/05/19 00:54:00;;;;;;;103.00;93.65;;;;;;;10.16;100.00;101143.63;5019257;28;20489;-75
2023/05/19 00:56:27;;;;;;;82.03;73.28;;;;;;;10.41;100.00;101141.41;5021563;28;20515;-76
2023/05/19 00:58:56;;;;;;;81.32;73.10;;;;;;;10.21;100.00;101140.41;5021270;28;20049;-76
2023/05/19 01:01:25;;;;;;;80.63;72.82;;;;;;;10.31;100.00;101147.03;5021993;28;20049;-75
2023/05/19 01:03:52;;;;;;;82.07;74.25;;;;;;;10.25;100.00;101147.78;5019091;28;20049;-76
2023/05/19 01:06:19;;;;;;;79.35;71.85;;;;;;;10.09;100.00;101143.59;5011639;28;20056;-76
2023/05/19 01:08:46;;;;;;;81.82;74.07;;;;;;;10.15;100.00;101147.31;5018730;28;20049;-76
2023/05/19 01:11:13;;;;;;;82.82;74.90;;;;;;;10.03;100.00;101147.00;5024516;28;20053;-76
2023/05/19 01:13:40;;;;;;;82.32;74.70;;;;;;;9.99;100.00;101150.25;5018994;28;20057;-76
2023/05/19 01:16:14;;;;;;;84.50;68.85;;;;;;;9.71;100.00;101136.91;5025509;28;20053;-76
2023/05/19 01:18:47;;;;;;;69.13;62.03;;;;;;;9.94;100.00;101144.69;5021414;28;20119;-76
2023/05/19 01:21:48;;;;;;;212.40;197.55;;;;;;;9.69;100.00;101144.25;5018575;28;20054;-76
2023/05/19 01:24:34;;;;;;;188.50;175.45;;;;;;;9.69;100.00;101134.47;5021664;28;20049;-76
2023/05/19 01:27:22;;;;;;;187.98;173.43;;;;;;;9.94;100.00;101139.38;5019064;28;20050;-76
2023/05/19 01:30:24;;;;;;;91.78;82.03;;;;;;;9.82;100.00;101141.72;5021459;28;20059;-76
2023/05/19 01:32:53;;;;;;;77.70;70.18;;;;;;;9.92;100.00;101131.59;5022369;28;20501;-75
2023/05/19 01:35:22;;;;;;;102.63;91.03;;;;;;;9.34;100.00;101131.66;5019243;28;20115;-75
2023/05/19 01:37:52;;;;;;;94.78;84.38;;;;;;;9.46;100.00;101144.44;5018137;28;20481;-76
2023/05/19 01:40:21;;;;;;;87.03;77.93;;;;;;;9.29;100.00;101133.22;5022188;28;20060;-76
2023/05/19 01:42:49;;;;;;;95.93;85.35;;;;;;;9.52;100.00;101135.72;5018067;28;20506;-76
2023/05/19 01:45:18;;;;;;;88.22;78.75;;;;;;;9.13;100.00;101135.09;5021495;28;20045;-75
2023/05/19 01:47:48;;;;;;;108.93;98.88;;;;;;;9.47;100.00;101138.94;5018383;28;20455;-76
2023/05/19 01:50:16;;;;;;;82.28;73.53;;;;;;;9.61;100.00;101135.41;5022291;28;20053;-76
2023/05/19 01:52:43;;;;;;;79.70;71.28;;;;;;;9.59;100.00;101145.41;5025411;28;20052;-76
2023/05/19 01:55:10;;;;;;;75.85;68.18;;;;;;;9.66;100.00;101139.34;5021650;28;20068;-76
2023/05/19 01:57:46;;;;;;;73.85;66.55;;;;;;;9.58;100.00;101138.44;5021997;28;20060;-76
2023/05/19 02:00:18;;;;;;;75.40;68.05;;;;;;;9.44;100.00;101141.13;5019494;28;20053;-76
2023/05/19 02:03:01;;;;;;;78.50;70.57;;;;;;;9.15;100.00;101134.91;5021765;28;20061;-76
2023/05/19 02:05:34;;;;;;;72.45;65.15;;;;;;;8.99;100.00;101141.25;5022142;28;20053;-76
2023/05/19 02:08:09;;;;;;;72.65;65.32;;;;;;;9.07;100.00;101140.31;5022588;28;20053;-76
2023/05/19 02:10:42;;;;;;;95.88;87.53;;;;;;;8.97;100.00;101139.78;5020121;28;20045;-76
2023/05/19 02:13:13;;;;;;;90.85;83.03;;;;;;;8.83;100.00;101147.56;5016483;28;20052;-76
2023/05/19 02:15:42;;;;;;;93.28;83.50;;;;;;;9.12;100.00;101151.19;5022915;28;20127;-76
2023/05/19 02:18:12;;;;;;;79.65;71.78;;;;;;;9.21;100.00;101146.59;5020291;28;20045;-76
2023/05/19 02:20:39;;;;;;;86.82;79.53;;;;;;;8.92;100.00;101156.22;5021326;28;20461;-76
2023/05/19 02:23:06;;;;;;;70.03;63.42;;;;;;;8.89;100.00;101156.59;5021889;28;20046;-76
2023/05/19 02:25:33;;;;;;;69.07;62.35;;;;;;;9.07;100.00;101164.16;5018674;28;20501;-75
2023/05/19 02:28:00;;;;;;;75.03;67.20;;;;;;;9.10;100.00;101167.25;5015521;28;20477;-75
2023/05/19 02:30:27;;;;;;;77.68;69.97;;;;;;;9.13;100.00;101177.50;5019004;28;20092;-75
2023/05/19 02:32:54;;;;;;;71.82;64.68;;;;;;;8.86;100.00;101173.69;5021197;28;20057;-75
2023/05/19 02:35:22;;;;;;;74.13;66.22;;;;;;;9.08;100.00;101177.25;5011892;28;20132;-75
2023/05/19 02:37:49;;;;;;;75.40;67.32;;;;;;;8.98;100.00;101178.53;5019797;28;20437;-75
2023/05/19 02:40:16;;;;;;;69.93;62.65;;;;;;;8.92;100.00;101186.19;5012954;28;20050;-75
2023/05/19 02:42:42;;;;;;;73.63;63.17;;;;;;;8.79;100.00;101186.03;5020314;28;20516;-75
2023/05/19 02:45:10;;;;;;;67.60;60.83;;;;;;;8.87;100.00;101191.22;5019744;28;20556;-75
2023/05/19 02:47:37;;;;;;;68.47;61.90;;;;;;;8.79;100.00;101188.66;5019587;28;20054;-75
2023/05/19 02:50:04;;;;;;;64.45;58.05;;;;;;;8.69;100.00;101193.41;5019818;28;20061;-76
2023/05/19 02:52:33;;;;;;;65.32;58.60;;;;;;;8.74;100.00;101195.50;5023059;28;20058;-75
2023/05/19 02:54:59;;;;;;;65.13;58.33;;;;;;;8.81;100.00;101201.75;5018938;28;20053;-75
2023/05/19 02:57:26;;;;;;;63.05;56.80;;;;;;;8.89;100.00;101204.28;5022004;28;20060;-75
2023/05/19 02:59:53;;;;;;;65.32;58.08;;;;;;;8.85;100.00;101201.19;5022454;28;20433;-75
2023/05/19 03:02:20;;;;;;;64.18;57.53;;;;;;;8.90;100.00;101213.91;5019561;28;20053;-75
2023/05/19 03:04:47;;;;;;;63.42;57.25;;;;;;;8.88;100.00;101206.13;5026366;28;20151;-75
2023/05/19 03:07:14;;;;;;;61.88;55.65;;;;;;;8.98;100.00;101207.66;5022093;28;20057;-75
2023/05/19 03:09:42;;;;;;;61.63;55.55;;;;;;;8.91;100.00;101215.53;5024004;28;20042;-75
2023/05/19 03:12:09;;;;;;;62.80;56.60;;;;;;;8.84;100.00;101215.44;5025091;28;20065;-76
2023/05/19 03:14:37;;;;;;;60.88;54.55;;;;;;;8.89;100.00;101223.63;5031056;28;20531;-75
2023/05/19 03:17:08;;;;;;;61.85;55.85;;;;;;;8.81;100.00;101218.44;5022899;28;20133;-75
2023/05/19 03:19:35;;;;;;;60.65;54.35;;;;;;;8.59;100.00;101233.38;5026646;28;20111;-76
2023/05/19 03:22:02;;;;;;;61.92;55.60;;;;;;;8.95;100.00;101227.38;5020649;28;20521;-74
2023/05/19 03:24:29;;;;;;;96.30;88.95;;;;;;;8.80;100.00;101229.22;5023346;28;20509;-75
2023/05/19 03:26:57;;;;;;;83.00;76.07;;;;;;;8.92;100.00;101235.69;5016581;28;20465;-75
2023/05/19 03:29:24;;;;;;;92.80;85.10;;;;;;;8.91;100.00;101234.06;5020659;28;20056;-75
2023/05/19 03:31:51;;;;;;;93.97;86.30;;;;;;;8.87;100.00;101243.41;5030674;28;20045;-75
2023/05/19 03:34:18;;;;;;;98.00;89.78;;;;;;;9.01;100.00;101233.78;5027157;28;20100;-75
2023/05/19 03:36:45;;;;;;;98.75;90.30;;;;;;;8.83;100.00;101242.91;5024820;28;20512;-75
2023/05/19 03:39:12;;;;;;;106.88;97.97;;;;;;;9.28;100.00;101240.28;5022460;28;20042;-75
2023/05/19 03:41:39;;;;;;;108.20;98.03;;;;;;;9.45;100.00;101247.03;5022160;28;20328;-75
2023/05/19 03:44:07;;;;;;;115.40;105.15;;;;;;;9.54;100.00;101248.56;5022613;28;20060;-75
2023/05/19 03:46:34;;;;;;;109.75;100.38;;;;;;;9.63;100.00;101250.09;5029587;28;20437;-74
2023/05/19 03:49:01;;;;;;;114.80;104.93;;;;;;;9.71;100.00;101249.13;5019708;28;20472;-75
2023/05/19 03:51:28;;;;;;;98.95;90.38;;;;;;;9.82;100.00;101250.50;5023193;28;20057;-76
2023/05/19 03:53:55;;;;;;;110.32;100.85;;;;;;;9.94;100.00;101254.28;5024131;28;20429;-76
2023/05/19 03:56:25;;;;;;;115.38;105.88;;;;;;;9.98;100.00;101252.91;5024099;28;20073;-76
2023/05/19 03:58:53;;;;;;;103.50;95.15;;;;;;;9.95;100.00;101258.59;5016276;28;20136;-76
2023/05/19 04:01:21;;;;;;;100.18;91.88;;;;;;;10.07;100.00;101259.72;5021257;28;20053;-76
2023/05/19 04:03:48;;;;;;;97.97;89.85;;;;;;;10.09;100.00;101257.72;5022130;28;20049;-76
2023/05/19 04:06:16;;;;;;;97.57;89.97;;;;;;;10.21;100.00;101260.69;5022530;28;20054;-77
2023/05/19 04:08:43;;;;;;;100.45;92.53;;;;;;;10.30;100.00;101259.56;5022884;28;20103;-76
2023/05/19 04:11:11;;;;;;;96.20;87.75;;;;;;;10.43;100.00;101263.34;5018710;28;20081;-76
2023/05/19 04:13:38;;;;;;;104.45;96.15;;;;;;;10.50;100.00;101267.72;5022769;28;20058;-76
2023/05/19 04:16:05;;;;;;;106.18;98.22;;;;;;;10.60;100.00;101272.69;5023182;28;20520;-75
2023/05/19 04:18:33;;;;;;;111.15;102.50;;;;;;;10.60;100.00;101274.53;5022225;28;20136;-76
2023/05/19 04:21:00;;;;;;;102.55;93.68;;;;;;;10.48;100.00;101274.25;5020615;28;20516;-76
2023/05/19 04:23:27;;;;;;;94.72;85.85;;;;;;;10.67;100.00;101272.75;5015643;28;20069;-76
2023/05/19 04:25:55;;;;;;;100.68;92.88;;;;;;;10.77;100.00;101271.41;5021765;28;20060;-76
2023/05/19 04:28:22;;;;;;;99.53;91.25;;;;;;;10.73;100.00;101275.44;5021491;28;20119;-76
2023/05/19 04:30:50;;;;;;;98.75;90.20;;;;;;;10.93;100.00;101275.59;5022916;28;20053;-76
2023/05/19 04:33:18;;;;;;;93.28;85.18;;;;;;;10.95;100.00;101273.56;5020935;28;20092;-76
2023/05/19 04:35:49;;;;;;;94.53;86.80;;;;;;;11.24;100.00;101269.84;5019977;28;20046;-76
2023/05/19 04:38:17;;;;;;;96.20;88.07;;;;;;;11.41;100.00;101273.00;5025232;28;20046;-75
2023/05/19 04:40:44;;;;;;;98.18;90.28;;;;;;;11.36;100.00;101271.94;5023269;28;20120;-76
2023/05/19 04:43:11;;;;;;;94.53;86.47;;;;;;;11.53;100.00;101283.91;5019555;28;20053;-76
2023/05/19 04:45:41;;;;;;;96.82;88.63;;;;;;;11.77;100.00;101279.91;5021135;28;20514;-75
2023/05/19 04:48:08;;;;;;;99.15;90.72;;;;;;;11.75;100.00;101271.28;5019564;28;20437;-75
2023/05/19 04:50:37;;;;;;;101.82;93.13;;;;;;;11.87;100.00;101274.22;5028769;28;20443;-75
2023/05/19 04:53:05;;;;;;;84.47;76.53;;;;;;;12.05;100.00;101286.97;5019914;28;20075;-75
2023/05/19 04:55:33;;;;;;;90.47;82.57;;;;;;;12.10;100.00;101276.50;5021886;28;20441;-76
2023/05/19 04:58:00;;;;;;;89.68;82.07;;;;;;;12.40;100.00;101284.13;5021956;28;20053;-75
2023/05/19 05:00:27;;;;;;;93.80;86.00;;;;;;;12.42;100.00;101282.09;5022165;28;20050;-75
2023/05/19 05:02:56;;;;;;;96.15;87.85;;;;;;;12.60;100.00;101290.28;5025906;28;20050;-75
2023/05/19 05:05:23;;;;;;;101.45;92.97;;;;;;;12.73;100.00;101289.47;5021934;28;20049;-75
2023/05/19 05:07:52;;;;;;;93.40;84.88;;;;;;;12.92;100.00;101290.47;5017550;28;20120;-75
2023/05/19 05:10:21;;;;;;;96.05;87.75;;;;;;;12.99;100.00;101289.44;5022856;28;20050;-75
2023/05/19 05:12:48;;;;;;;106.90;97.22;;;;;;;13.36;100.00;101299.66;5021053;28;20460;-75
2023/05/19 05:15:15;;;;;;;106.93;97.32;;;;;;;13.48;100.00;101293.44;5021192;28;20050;-75
2023/05/19 05:17:43;;;;;;;94.43;86.22;;;;;;;13.55;100.00;101297.94;5020115;28;20433;-75
2023/05/19 05:20:11;;;;;;;109.35;100.38;;;;;;;13.80;100.00;101295.34;5021046;28;20505;-76
2023/05/19 05:22:39;;;;;;;110.53;100.85;;;;;;;13.82;100.00;101294.09;5020505;28;20045;-75
2023/05/19 05:25:08;;;;;;;108.88;99.28;;;;;;;14.03;100.00;101297.50;5015735;28;20088;-75
2023/05/19 05:27:36;;;;;;;129.23;118.38;;;;;;;14.24;100.00;101294.47;5019864;28;20054;-76
2023/05/19 05:30:04;;;;;;;123.65;113.47;;;;;;;14.18;100.00;101295.34;5023143;28;20064;-76
2023/05/19 05:32:30;;;;;;;117.05;107.53;;;;;;;14.35;100.00;101301.81;5017095;28;20506;-76
2023/05/19 05:34:57;;;;;;;137.05;125.15;;;;;;;14.72;100.00;101309.16;5027196;28;20053;-75
2023/05/19 05:37:24;;;;;;;145.20;133.82;;;;;;;14.81;100.00;101313.19;5018211;28;20057;-75
2023/05/19 05:39:51;;;;;;;144.80;133.23;;;;;;;15.16;100.00;101309.97;5024060;28;20045;-75
2023/05/19 05:42:19;;;;;;;135.52;124.10;;;;;;;15.37;100.00;101306.03;5018066;28;20060;-75
2023/05/19 05:44:47;;;;;;;130.65;119.88;;;;;;;15.55;100.00;101314.06;5021685;28;20406;-76
2023/05/19 05:47:14;;;;;;;141.77;130.35;;;;;;;15.71;100.00;101310.81;5019398;28;20065;-76
2023/05/19 05:49:42;;;;;;;124.35;113.82;;;;;;;16.07;100.00;101308.28;5019681;28;20290;-76
2023/05/19 05:52:11;;;;;;;128.57;118.38;;;;;;;16.34;100.00;101298.81;5018957;28;20076;-77
2023/05/19 05:54:39;;;;;;;110.15;101.35;;;;;;;15.84;100.00;101309.03;5018193;28;20458;-76
2023/05/19 05:57:06;;;;;;;113.60;103.57;;;;;;;16.40;100.00;101300.59;5024608;28;20513;-76
2023/05/19 05:59:33;;;;;;;92.80;84.85;;;;;;;16.66;100.00;101304.69;5019654;28;20048;-75
2023/05/19 06:02:02;;;;;;;85.20;77.75;;;;;;;16.56;100.00;101309.00;5023304;28;20503;-75
2023/05/19 06:04:29;;;;;;;97.13;89.32;;;;;;;16.78;100.00;101315.47;5017172;28;20057;-75
2023/05/19 06:06:59;;;;;;;118.07;109.00;;;;;;;16.76;100.00;101314.84;5022043;28;20042;-75
2023/05/19 06:09:27;;;;;;;95.45;87.38;;;;;;;16.47;100.00;101306.66;5024711;28;20438;-76
2023/05/19 06:11:54;;;;;;;89.05;81.43;;;;;;;16.94;100.00;101308.56;5021193;28;20128;-76
2023/05/19 06:14:21;;;;;;;91.90;83.78;;;;;;;17.12;100.00;101319.16;5020038;28;20540;-75
2023/05/19 06:16:48;;;;;;;93.90;85.93;;;;;;;17.37;100.00;101318.13;5021140;28;20048;-75
2023/05/19 06:19:16;;;;;;;103.20;94.18;;;;;;;17.56;100.00;101319.59;5020075;28;20053;-76
2023/05/19 06:21:43;;;;;;;97.75;89.90;;;;;;;17.40;100.00;101318.47;5015601;28;20057;-75
2023/05/19 06:24:10;;;;;;;97.32;88.90;;;;;;;17.30;100.00;101326.28;5026368;28;20053;-75
2023/05/19 06:26:36;;;;;;;84.68;77.45;;;;;;;17.26;100.00;101330.50;5017526;28;20057;-75
2023/05/19 06:29:03;;;;;;;63.22;57.42;;;;;;;17.57;100.00;101326.56;5022223;28;20057;-75
2023/05/19 06:31:32;;;;;;;80.30;73.18;;;;;;;17.33;100.00;101336.53;5019038;28;20050;-76
2023/05/19 06:33:58;;;;;;;83.65;76.47;;;;;;;17.57;100.00;101337.31;5015584;28;20080;-75
2023/05/19 06:36:27;;;;;;;94.68;86.68;;;;;;;17.53;100.00;101338.84;5017310;28;20050;-76
2023/05/19 06:38:54;;;;;;;94.05;86.32;;;;;;;17.72;100.00;101347.56;5019393;28;20060;-75
2023/05/19 06:41:20;;;;;;;84.32;76.85;;;;;;;17.81;100.00;101337.28;5020266;28;20050;-76
2023/05/19 06:43:47;;;;;;;62.30;57.00;;;;;;;18.02;100.00;101336.63;5022459;28;20049;-76
2023/05/19 06:46:16;;;;;;;71.15;65.00;;;;;;;18.33;100.00;101337.16;5014906;28;20077;-75
2023/05/19 06:48:43;;;;;;;90.80;83.22;;;;;;;18.01;100.00;101342.25;5022072;28;20505;-76
2023/05/19 06:51:10;;;;;;;62.25;55.97;;;;;;;17.60;100.00;101350.28;5019553;28;20521;-75
2023/05/19 06:53:38;;;;;;;54.55;49.00;;;;;;;17.97;100.00;101341.09;5020991;28;20064;-76
2023/05/19 06:56:05;;;;;;;62.67;56.88;;;;;;;18.30;100.00;101345.72;5017106;28;20052;-76
2023/05/19 06:58:32;;;;;;;59.88;53.85;;;;;;;18.26;100.00;101342.72;5022354;28;20548;-75
2023/05/19 07:00:59;;;;;;;69.70;63.30;;;;;;;18.23;100.00;101337.81;5018562;28;20068;-76
2023/05/19 07:03:26;;;;;;;62.80;55.95;;;;;;;18.38;100.00;101333.75;5019095;28;20054;-75
2023/05/19 07:05:53;;;;;;;62.00;55.90;;;;;;;18.55;100.00;101329.22;5021329;28;20457;-76
2023/05/19 07:08:20;;;;;;;59.80;53.63;;;;;;;18.93;100.00;101331.19;5016718;28;20049;-76
2023/05/19 07:10:48;;;;;;;62.90;54.08;;;;;;;19.15;100.00;101333.94;5019498;28;20509;-75
2023/05/19 07:13:15;;;;;;;109.15;99.82;;;;;;;19.72;100.00;101332.78;5019681;28;20042;-76
2023/05/19 07:15:42;;;;;;;82.35;74.97;;;;;;;19.79;100.00;101335.28;5021858;28;20116;-75
2023/05/19 07:18:09;;;;;;;59.17;53.17;;;;;;;19.38;100.00;101321.28;5021507;28;20100;-76
2023/05/19 07:20:35;;;;;;;50.20;45.03;;;;;;;19.43;100.00;101321.38;5019271;28;20137;-75
2023/05/19 07:23:04;;;;;;;53.80;48.13;;;;;;;19.97;100.00;101329.56;5020022;28;20061;-76
2023/05/19 07:25:32;;;;;;;48.05;42.97;;;;;;;20.00;100.00;101337.16;5020552;28;20141;-75
2023/05/19 07:28:00;;;;;;;56.35;50.75;;;;;;;20.33;100.00;101329.91;5012955;28;20050;-76
2023/05/19 07:30:27;;;;;;;54.53;49.22;;;;;;;20.13;100.00;101330.53;5024527;28;20050;-76
2023/05/19 07:32:54;;;;;;;49.25;43.60;;;;;;;20.00;100.00;101334.47;5012249;28;20433;-75
2023/05/19 07:35:24;;;;;;;52.30;46.85;;;;;;;20.28;100.00;101335.25;5021287;28;20046;-76
2023/05/19 07:37:52;;;;;;;48.17;43.00;;;;;;;20.07;100.00;101326.16;5017910;28;20046;-75
2023/05/19 07:40:19;;;;;;;48.97;43.67;;;;;;;20.40;100.00;101324.31;5022871;28;20473;-76
2023/05/19 07:42:45;;;;;;;45.08;40.42;;;;;;;20.09;100.00;101324.00;5019744;28;20045;-77
2023/05/19 07:45:14;;;;;;;48.75;43.90;;;;;;;20.55;100.00;101325.28;5020001;28;20049;-76
2023/05/19 07:47:41;;;;;;;49.88;44.90;;;;;;;20.67;100.00;101321.59;5023898;28;20448;-76
2023/05/19 07:50:08;;;;;;;60.78;46.05;;;;;;;20.85;100.00;101318.47;5023422;28;20559;-76
2023/05/19 07:52:35;;;;;;;49.45;45.13;;;;;;;20.27;100.00;101328.22;5023239;28;20498;-76
2023/05/19 07:55:02;;;;;;;48.00;42.70;;;;;;;21.00;100.00;101321.28;5024244;28;20529;-76
2023/05/19 07:57:29;;;;;;;52.78;47.10;;;;;;;21.39;100.00;101322.84;5024085;28;20052;-75
2023/05/19 07:59:56;;;;;;;48.80;43.97;;;;;;;21.41;100.00;101320.69;5024617;28;20485;-75
2023/05/19 08:02:24;;;;;;;55.00;50.05;;;;;;;20.97;100.00;101319.09;5022113;28;20049;-76
2023/05/19 08:04:51;;;;;;;51.30;46.35;;;;;;;20.91;100.00;101325.53;5017747;28;20061;-75
2023/05/19 08:07:18;;;;;;;54.75;49.10;;;;;;;21.56;100.00;101323.47;5025124;28;20537;-76
2023/05/19 08:09:46;;;;;;;48.38;43.42;;;;;;;21.37;100.00;101325.00;5020036;28;20057;-75
2023/05/19 08:12:13;;;;;;;48.03;43.13;;;;;;;21.53;100.00;101321.28;5024297;28;20629;-75
2023/05/19 08:14:40;;;;;;;47.00;42.40;;;;;;;21.57;100.00;101316.16;5022211;28;20433;-75
2023/05/19 08:17:07;;;;;;;38.80;34.63;;;;;;;21.22;100.00;101323.00;5021948;28;20049;-76
2023/05/19 08:19:35;;;;;;;49.35;44.17;;;;;;;21.71;100.00;101317.28;5012619;28;20061;-76
2023/05/19 08:22:02;;;;;;;42.95;38.70;;;;;;;20.42;100.00;101324.84;5019194;28;20505;-76
2023/05/19 08:24:29;;;;;;;49.95;45.03;;;;;;;21.57;100.00;101319.66;5026570;28;20497;-76
2023/05/19 08:26:56;;;;;;;50.05;45.08;;;;;;;21.77;100.00;101328.94;5016489;28;20366;-75
2023/05/19 08:29:22;;;;;;;41.38;37.65;;;;;;;21.51;100.00;101320.72;5023802;28;20057;-75
2023/05/19 08:31:51;;;;;;;46.70;42.40;;;;;;;21.57;100.00;101326.97;5021067;28;20517;-76
2023/05/19 08:34:18;;;;;;;38.25;34.67;;;;;;;21.09;100.00;101324.31;5016807;28;20046;-76
2023/05/19 08:36:46;;;;;;;45.80;41.45;;;;;;;22.19;100.00;101320.69;5022736;28;20060;-75
2023/05/19 08:39:15;;;;;;;44.83;40.63;;;;;;;21.64;100.00;101325.66;5020992;28;20050;-75
2023/05/19 08:41:42;;;;;;;43.95;40.13;;;;;;;22.31;100.00;101317.72;5026292;28;20056;-75
2023/05/19 08:44:09;;;;;;;38.20;34.10;;;;;;;22.27;100.00;101316.59;5018006;28;20418;-76
2023/05/19 08:46:36;;;;;;;40.47;36.47;;;;;;;21.52;100.00;101316.97;5031280;28;20513;-76
2023/05/19 08:49:09;;;;;;;37.45;33.97;;;;;;;21.54;100.00;101312.09;5023022;28;20049;-75
2023/05/19 08:51:42;;;;;;;41.35;37.28;;;;;;;21.91;100.00;101306.53;5023353;28;20053;-75
2023/05/19 08:54:15;;;;;;;40.08;36.13;;;;;;;21.27;100.00;101315.75;5023569;28;20498;-75
2023/05/19 08:56:43;;;;;;;38.50;34.85;;;;;;;20.61;100.00;101314.53;5017720;28;20076;-76
2023/05/19 08:59:12;;;;;;;50.95;44.22;;;;;;;22.17;100.00;101309.31;5025506;28;20084;-75
2023/05/19 09:01:40;;;;;;;38.67;34.78;;;;;;;20.95;100.00;101310.44;5017897;28;20046;-75
2023/05/19 09:04:07;;;;;;;42.40;38.00;;;;;;;22.30;100.00;101297.97;5026175;28;20069;-75
2023/05/19 09:06:33;;;;;;;44.63;40.15;;;;;;;21.89;100.00;101299.78;5023173;28;20049;-76
2023/05/19 09:09:00;;;;;;;39.20;34.47;;;;;;;21.99;100.00;101299.78;5021578;28;20437;-76
2023/05/19 09:11:29;;;;;;;40.13;35.95;;;;;;;22.88;100.00;101286.81;5021707;28;20061;-76
2023/05/19 09:13:56;;;;;;;38.10;34.38;;;;;;;22.81;100.00;101297.09;5022873;28;20529;-76
2023/05/19 09:16:23;;;;;;;44.42;40.03;;;;;;;23.18;100.00;101295.94;5016981;28;20065;-77
2023/05/19 09:18:57;;;;;;;36.67;32.97;;;;;;;23.28;100.00;101298.63;5021268;28;20050;-76
2023/05/19 09:21:29;;;;;;;33.45;30.13;;;;;;;22.17;100.00;101293.88;5023221;28;20041;-76
2023/05/19 09:23:56;;;;;;;;;;;;;;;21.51;100.00;101299.09;5021497;28;20081;-76
2023/05/19 09:26:23;;;;;;;36.72;33.10;;;;;;;21.92;100.00;101294.63;5021170;28;19921;-76
2023/05/19 09:28:51;;;;;;;36.58;33.03;;;;;;;21.89;100.00;101297.88;5021600;28;20050;-76
2023/05/19 09:31:18;;;;;;;36.65;32.42;;;;;;;22.12;100.00;101301.16;5020396;28;20145;-76
2023/05/19 09:33:45;;;;;;;35.55;31.88;;;;;;;21.65;100.00;101291.34;5020468;28;20524;-76
2023/05/19 09:36:12;;;;;;;37.55;33.88;;;;;;;22.24;100.00;101292.81;5014381;28;20587;-76
2023/05/19 09:38:40;;;;;;;37.45;32.25;;;;;;;22.82;100.00;101293.31;5020082;28;20052;-76
2023/05/19 09:41:08;;;;;;;33.22;30.02;;;;;;;23.45;100.00;101293.69;5018103;28;20046;-76
2023/05/19 09:43:35;;;;;;;36.75;33.25;;;;;;;23.09;100.00;101287.59;5019738;28;20054;-76
2023/05/19 09:46:06;;;;;;;32.80;29.67;;;;;;;22.86;100.00;101272.72;5016150;28;20061;-77
2023/05/19 09:48:33;;;;;;;33.60;30.02;;;;;;;22.33;100.00;101285.75;5022311;28;20053;-76
2023/05/19 09:51:01;;;;;;;35.97;31.85;;;;;;;23.30;100.00;101277.50;5020329;28;20057;-76
2023/05/19 09:53:30;;;;;;;34.85;29.85;;;;;;;23.35;100.00;101276.63;5022728;28;20050;-76
2023/05/19 09:55:57;;;;;;;33.17;29.75;;;;;;;23.43;100.00;101286.91;5018033;28;20054;-76
2023/05/19 09:58:25;;;;;;;33.38;30.30;;;;;;;23.43;100.00;101281.50;5022024;28;20045;-76
2023/05/19 10:00:53;;;;;;;30.15;27.15;;;;;;;22.49;100.00;101275.75;5021544;28;20441;-76
2023/05/19 10:03:22;;;;;;;28.92;26.17;;;;;;;21.35;100.00;101281.19;5019556;28;20050;-76
2023/05/19 10:05:50;;;;;;;35.13;32.00;;;;;;;22.89;100.00;101272.16;5022429;28;20054;-76
2023/05/19 10:08:20;;;;;;;34.53;31.45;;;;;;;23.36;100.00;101273.66;5017091;28;20049;-76
2023/05/19 10:10:48;;;;;;;34.53;30.95;;;;;;;23.28;100.00;101283.16;5015171;28;20127;-76
2023/05/19 10:13:16;;;;;;;31.13;28.20;;;;;;;22.87;100.00;101271.63;5021834;28;20053;-77
2023/05/19 10:15:44;;;;;;;33.45;30.25;;;;;;;24.15;100.00;101263.69;5015482;28;20053;-76
2023/05/19 10:18:12;;;;;;;33.13;30.02;;;;;;;24.45;100.00;101267.28;5020075;28;20555;-76
2023/05/19 10:20:41;;;;;;;39.97;32.00;;;;;;;24.08;100.00;101263.19;5023201;28;20041;-76
2023/05/19 10:23:08;;;;;;;33.53;29.92;;;;;;;23.37;100.00;101256.31;5017993;28;20136;-76
2023/05/19 10:25:35;;;;;;;34.65;30.25;;;;;;;24.06;100.00;101253.75;5021124;28;20050;-76
2023/05/19 10:28:07;;;;;;;33.35;30.13;;;;;;;23.02;100.00;101254.53;5011329;28;20057;-76
2023/05/19 10:30:39;;;;;;;30.15;27.25;;;;;;;22.68;100.00;101254.34;5019279;28;20143;-76
2023/05/19 10:33:09;;;;;;;32.97;29.83;;;;;;;22.99;100.00;101247.78;5021256;28;20445;-76
2023/05/19 10:36:07;;;;;;;35.38;31.88;;;;;;;23.95;100.00;101244.88;5017815;28;20077;-76
2023/05/19 10:38:42;;;;;;;33.25;29.95;;;;;;;23.96;100.00;101238.34;5023550;28;20049;-76
2023/05/19 10:41:16;;;;;;;34.47;30.63;;;;;;;24.22;100.00;101239.75;5015512;28;20085;-77
2023/05/19 10:43:59;;;;;;;33.90;30.38;;;;;;;24.80;100.00;101238.94;5015885;28;20480;-76
2023/05/19 10:46:27;;;;;;;33.38;27.85;;;;;;;24.08;100.00;101246.13;5014668;28;20054;-76
2023/05/19 10:48:54;;;;;;;32.05;28.98;;;;;;;23.64;100.00;101246.94;5023754;28;20099;-76
2023/05/19 10:51:30;;;;;;;30.63;27.90;;;;;;;23.79;100.00;101236.03;5024016;28;20569;-76
2023/05/19 10:53:57;;;;;;;31.75;28.80;;;;;;;23.38;100.00;101236.25;5022290;28;20049;-76
2023/05/19 10:56:29;;;;;;;29.65;26.60;;;;;;;22.99;100.00;101230.72;5024644;28;20480;-76
2023/05/19 10:58:56;;;;;;;30.35;27.25;;;;;;;23.71;100.00;101233.91;5020225;28;20488;-76
2023/05/19 11:01:30;;;;;;;31.25;28.23;;;;;;;24.25;100.00;101222.09;5020998;28;20050;-76
2023/05/19 11:03:57;;;;;;;31.17;27.98;;;;;;;23.75;100.00;101224.94;5012657;28;20052;-76
2023/05/19 11:06:30;;;;;;;34.08;27.05;;;;;;;23.41;100.00;101218.59;5020046;28;20050;-76
2023/05/19 11:09:00;;;;;;;33.05;27.95;;;;;;;23.06;100.00;101218.53;5019644;28;20053;-76